Time;durP1;ratioP1;P1;durP2;ratioP2;P2;SDS_P1;SDS_P2;PMS_P1;PMS_P2;Temp;Humidity;BMP_temperature;BMP_pressure;BME280_temperature;BME280_humidity;BME280_pressure;Samples;Min_cycle;Max_cycle;Signal;HPM_P1;HPM_P2
2022/03/20 00:01:45;;;;;;;13.18;7.30;;;-2.00;99.70;;;;;;20721705;28;20067;-47
2022/03/20 00:11:48;;;;;;;16.77;8.23;;;-2.20;99.90;;;;;;20720894;28;20042;-48
2022/03/20 00:21:50;;;;;;;16.20;7.70;;;-1.90;99.70;;;;;;20737688;28;20086;-51
2022/03/20 00:31:54;;;;;;;14.43;7.18;;;-1.50;98.80;;;;;;20719605;28;20043;-46
2022/03/20 00:41:58;;;;;;;15.68;8.23;;;-1.10;98.00;;;;;;20736279;28;20068;-51
2022/03/20 00:52:00;;;;;;;14.98;8.32;;;-1.20;97.90;;;;;;20736136;28;20046;-52
2022/03/20 01:02:04;;;;;;;18.27;8.85;;;-0.80;97.30;;;;;;20735283;28;20103;-50
2022/03/20 01:12:10;;;;;;;17.40;8.88;;;-1.00;97.00;;;;;;20717164;28;20031;-52
2022/03/20 01:22:13;;;;;;;15.80;8.65;;;-0.90;96.70;;;;;;20733372;28;20039;-47
2022/03/20 01:32:16;;;;;;;15.02;8.25;;;-1.00;96.70;;;;;;20715957;28;20380;-53
2022/03/20 01:42:21;;;;;;;15.48;7.80;;;-1.30;96.70;;;;;;20732876;28;20038;-47
2022/03/20 01:52:24;;;;;;;16.00;8.85;;;-1.30;96.90;;;;;;20714279;28;20039;-46
2022/03/20 02:02:27;;;;;;;18.33;9.05;;;-1.20;96.30;;;;;;20713541;28;20092;-50
2022/03/20 02:12:31;;;;;;;20.05;8.95;;;-1.40;96.70;;;;;;20615741;28;20038;-47
2022/03/20 02:22:38;;;;;;;17.23;9.38;;;-1.50;97.00;;;;;;20631833;28;20035;-49
2022/03/20 02:32:52;;;;;;;16.63;9.07;;;-1.70;97.60;;;;;;20807608;28;20106;-51
2022/03/20 02:42:55;;;;;;;17.85;9.73;;;-1.70;97.80;;;;;;20899970;28;20357;-49
2022/03/20 02:53:03;;;;;;;19.83;9.38;;;-1.60;97.40;;;;;;20899298;28;20659;-47
2022/03/20 03:03:08;;;;;;;19.67;9.77;;;-1.80;97.90;;;;;;20915471;28;20033;-50
2022/03/20 03:13:13;;;;;;;19.33;10.02;;;-2.20;98.30;;;;;;20935344;28;20040;-46
2022/03/20 03:23:16;;;;;;;18.23;9.45;;;-2.30;98.40;;;;;;20981022;28;20110;-48
2022/03/20 03:33:21;;;;;;;20.38;9.77;;;-2.20;98.30;;;;;;20780703;28;20042;-47
2022/03/20 03:43:25;;;;;;;16.75;8.63;;;-2.30;98.60;;;;;;20709243;28;20096;-46
2022/03/20 03:53:27;;;;;;;20.80;9.88;;;-2.30;98.70;;;;;;20707526;28;20111;-48
2022/03/20 04:03:29;;;;;;;20.48;10.27;;;-2.70;99.20;;;;;;20707238;28;20042;-49
2022/03/20 04:13:32;;;;;;;18.10;9.43;;;-2.90;99.90;;;;;;20669241;28;20043;-46
2022/03/20 04:23:48;;;;;;;18.30;8.82;;;-3.10;99.90;;;;;;20635438;28;20034;-46
2022/03/20 04:33:54;;;;;;;19.40;8.85;;;-3.20;99.90;;;;;;20855677;28;20045;-47
2022/03/20 04:43:58;;;;;;;22.60;9.18;;;-3.20;99.90;;;;;;20908927;28;20029;-51
2022/03/20 05:04:22;;;;;;;20.17;9.55;;;-3.30;99.90;;;;;;20907237;28;20102;-47
2022/03/20 05:14:24;;;;;;;22.75;11.90;;;-3.40;99.90;;;;;;20953987;28;20078;-51
2022/03/20 05:24:26;;;;;;;24.10;11.05;;;-3.20;99.90;;;;;;20989741;28;20032;-46
2022/03/20 05:34:29;;;;;;;22.70;11.40;;;-2.90;99.90;;;;;;20746979;28;20070;-47
2022/03/20 05:44:33;;;;;;;22.63;11.27;;;-2.40;99.90;;;;;;20715700;28;20042;-53
2022/03/20 05:54:36;;;;;;;23.75;11.05;;;-2.20;99.90;;;;;;20714683;28;20484;-50
2022/03/20 06:04:39;;;;;;;19.70;10.10;;;-2.30;99.90;;;;;;20713951;28;20034;-47
2022/03/20 06:14:41;;;;;;;20.55;10.85;;;-2.50;99.90;;;;;;20664754;28;20170;-48
2022/03/20 06:24:43;;;;;;;23.85;11.35;;;-2.30;99.90;;;;;;20631929;28;20488;-53
2022/03/20 06:34:46;;;;;;;18.83;10.32;;;-2.00;99.90;;;;;;20877541;28;20420;-48
2022/03/20 06:44:49;;;;;;;20.35;10.55;;;-1.70;99.90;;;;;;20899513;28;20103;-50
2022/03/20 06:54:52;;;;;;;20.40;10.45;;;-1.60;99.90;;;;;;20899493;28;20452;-47
2022/03/20 07:04:54;;;;;;;20.95;11.85;;;-1.10;99.00;;;;;;20980150;28;20041;-50
2022/03/20 07:14:57;;;;;;;21.08;11.18;;;-0.10;97.60;;;;;;20998348;28;20032;-46
2022/03/20 07:29:29;;;;;;;19.23;10.43;;;0.80;95.70;;;;;;20981959;28;20032;-51
2022/03/20 07:35:24;;;;;;;20.67;10.93;;;1.40;94.60;;;;;;20694935;28;20058;-49
2022/03/20 07:45:27;;;;;;;18.48;10.73;;;2.10;93.90;;;;;;20708833;28;20046;-48
2022/03/20 07:55:30;;;;;;;18.83;10.35;;;2.90;93.10;;;;;;20713477;28;20091;-51
2022/03/20 08:05:32;;;;;;;19.48;10.32;;;3.50;92.30;;;;;;20721592;28;20046;-51
2022/03/20 08:15:35;;;;;;;16.38;10.00;;;4.10;90.30;;;;;;20738212;28;20114;-51
2022/03/20 08:25:38;;;;;;;17.33;9.80;;;4.60;90.80;;;;;;20720276;28;20091;-48
2022/03/20 08:35:41;;;;;;;17.90;10.60;;;5.00;88.80;;;;;;20992921;28;20041;-53
2022/03/20 08:45:47;;;;;;;19.05;10.23;;;5.30;87.90;;;;;;20991994;28;20048;-51
2022/03/20 08:55:49;;;;;;;17.92;10.35;;;5.80;86.10;;;;;;20991148;28;20032;-49
2022/03/20 09:05:52;;;;;;;18.80;10.27;;;6.00;86.30;;;;;;20989660;28;20037;-50
2022/03/20 09:26:20;;;;;;;16.05;9.13;;;6.90;82.90;;;;;;20715637;28;20034;-51
2022/03/20 09:36:23;;;;;;;17.65;10.13;;;7.10;81.00;;;;;;20356791;28;20056;-48
2022/03/20 09:46:26;;;;;;;16.02;9.32;;;7.60;77.60;;;;;;20304397;28;20107;-51
2022/03/20 09:56:29;;;;;;;14.73;9.55;;;7.60;81.00;;;;;;20321949;28;20048;-49
2022/03/20 10:06:36;;;;;;;18.83;10.20;;;8.20;80.60;;;;;;20423688;29;20106;-52
2022/03/20 10:16:41;;;;;;;17.63;10.15;;;8.90;76.90;;;;;;20467970;29;20047;-51
2022/03/20 10:26:44;;;;;;;15.90;9.88;;;8.80;81.40;;;;;;20484022;28;20546;-48
2022/03/20 10:36:49;;;;;;;20.85;10.02;;;8.00;78.40;;;;;;20698114;28;20112;-51
2022/03/20 10:47:04;;;;;;;14.57;9.55;;;7.20;79.30;;;;;;20710591;28;20099;-49
2022/03/20 10:57:08;;;;;;;16.33;9.73;;;7.60;78.80;;;;;;20711013;28;20038;-52
2022/03/20 11:07:16;;;;;;;18.23;11.15;;;8.30;79.60;;;;;;20710124;28;20064;-51
2022/03/20 11:17:26;;;;;;;17.27;10.35;;;9.30;79.50;;;;;;20640372;28;20039;-51
2022/03/20 11:27:30;;;;;;;19.63;11.43;;;9.00;75.70;;;;;;20631560;28;20043;-48
2022/03/20 11:37:43;;;;;;;17.20;9.73;;;8.40;78.50;;;;;;20915830;28;20037;-49
2022/03/20 11:47:48;;;;;;;17.50;10.90;;;8.10;80.70;;;;;;20913539;28;20037;-52
2022/03/20 11:57:53;;;;;;;18.25;11.30;;;8.00;81.50;;;;;;20913070;28;20083;-48
2022/03/20 12:08:21;;;;;;;18.05;11.35;;;7.60;81.10;;;;;;20912566;28;20091;-52
2022/03/20 12:18:24;;;;;;;20.15;12.07;;;7.50;83.70;;;;;;20991910;28;20090;-50
2022/03/20 12:28:31;;;;;;;22.77;11.85;;;9.30;79.40;;;;;;20959504;28;20050;-48
2022/03/20 12:38:38;;;;;;;17.33;10.82;;;8.50;79.00;;;;;;20719007;28;20064;-51
2022/03/20 12:48:52;;;;;;;17.67;10.98;;;7.90;81.10;;;;;;20718798;28;20043;-52
2022/03/20 12:58:55;;;;;;;18.58;11.02;;;8.00;80.70;;;;;;20718533;28;20107;-50
2022/03/20 13:08:58;;;;;;;17.17;10.48;;;7.90;80.60;;;;;;20715959;28;20035;-49
2022/03/20 13:19:01;;;;;;;19.30;11.30;;;8.70;79.00;;;;;;20636003;28;20039;-50
2022/03/20 13:29:03;;;;;;;18.65;11.48;;;8.30;80.60;;;;;;20688749;28;20075;-49
2022/03/20 13:39:11;;;;;;;19.48;11.73;;;7.80;80.40;;;;;;20904483;28;20032;-50
2022/03/20 13:49:15;;;;;;;19.58;11.82;;;7.10;81.10;;;;;;20903504;28;20110;-51
2022/03/20 13:59:19;;;;;;;18.90;12.10;;;6.30;83.90;;;;;;20918815;28;20099;-52
2022/03/20 14:09:33;;;;;;;21.27;11.18;;;7.00;82.00;;;;;;20909132;28;20248;-46
2022/03/20 14:19:47;;;;;;;19.60;11.35;;;6.90;81.20;;;;;;20984360;28;20098;-47
2022/03/20 14:40:15;;;;;;;16.63;11.00;;;6.40;84.00;;;;;;20711232;28;20092;-49
2022/03/20 14:50:18;;;;;;;18.45;11.00;;;6.50;82.70;;;;;;20711286;28;20046;-51
2022/03/20 15:00:24;;;;;;;22.92;11.45;;;6.40;82.50;;;;;;20710909;28;20046;-50
2022/03/20 15:20:47;;;;;;;16.27;10.25;;;6.00;84.40;;;;;;20629326;28;20031;-49
2022/03/20 15:30:50;;;;;;;20.08;11.43;;;5.80;85.50;;;;;;20740634;28;20033;-52
2022/03/20 15:40:53;;;;;;;19.17;11.65;;;5.40;85.20;;;;;;20896820;28;20045;-50
2022/03/20 15:50:59;;;;;;;21.23;12.13;;;4.60;86.50;;;;;;20897271;28;20064;-49
2022/03/20 16:01:08;;;;;;;19.38;11.57;;;4.30;88.20;;;;;;20913294;28;20048;-48
2022/03/20 16:11:11;;;;;;;20.63;11.88;;;4.20;88.80;;;;;;20916598;28;20040;-51
2022/03/20 16:21:13;;;;;;;20.08;11.35;;;4.00;89.60;;;;;;20991368;28;20443;-49
2022/03/20 16:31:21;;;;;;;19.60;11.68;;;3.60;90.30;;;;;;20863176;28;20478;-47
2022/03/20 16:41:23;;;;;;;23.40;11.32;;;3.40;90.60;;;;;;20721134;28;20042;-50
2022/03/20 16:51:26;;;;;;;18.33;11.60;;;3.40;90.90;;;;;;20719188;28;20084;-50
2022/03/20 17:01:29;;;;;;;17.17;10.32;;;3.50;91.30;;;;;;20719892;28;20031;-48
2022/03/20 17:11:33;;;;;;;21.42;11.65;;;3.50;91.50;;;;;;20695053;28;20088;-49
2022/03/20 17:21:40;;;;;;;16.20;8.20;;;3.20;91.80;;;;;;20636065;28;20039;-52
2022/03/20 17:31:43;;;;;;;12.10;7.00;;;3.00;86.00;;;;;;20778042;28;20493;-49
2022/03/20 17:41:46;;;;;;;13.15;7.10;;;2.70;83.40;;;;;;20904948;28;20082;-52
2022/03/20 17:51:56;;;;;;;9.85;5.82;;;2.50;81.60;;;;;;20903761;28;20183;-51
2022/03/20 18:12:21;;;;;;;12.18;6.30;;;2.00;84.00;;;;;;20932331;28;20382;-52
2022/03/20 18:22:25;;;;;;;11.40;6.38;;;1.60;85.50;;;;;;20983811;28;20028;-49
2022/03/20 18:32:28;;;;;;;13.65;6.82;;;1.60;85.80;;;;;;20813326;28;20487;-51
2022/03/20 18:42:31;;;;;;;13.90;6.57;;;1.50;86.50;;;;;;20711657;28;20046;-48
2022/03/20 18:52:47;;;;;;;10.43;6.13;;;1.50;86.30;;;;;;20709998;28;20034;-50
2022/03/20 19:02:51;;;;;;;13.75;6.40;;;1.50;87.30;;;;;;20709773;28;20072;-53
2022/03/20 19:12:55;;;;;;;11.30;6.03;;;1.50;86.80;;;;;;20676057;28;20047;-51
2022/03/20 19:22:57;;;;;;;13.50;6.78;;;1.50;86.40;;;;;;20628509;28;20047;-48
2022/03/20 19:33:00;;;;;;;12.15;7.22;;;1.40;86.60;;;;;;20813630;28;20387;-47
2022/03/20 19:43:04;;;;;;;12.73;6.28;;;1.40;87.60;;;;;;20896907;28;20041;-50
2022/03/20 19:53:07;;;;;;;15.00;7.43;;;1.30;88.60;;;;;;20905098;28;20110;-48
2022/03/20 20:03:10;;;;;;;15.70;8.70;;;1.30;89.20;;;;;;20912508;28;20049;-47
2022/03/20 20:23:37;;;;;;;12.00;6.25;;;1.50;86.90;;;;;;20993529;28;20118;-51
2022/03/20 20:33:40;;;;;;;12.82;7.10;;;1.40;89.40;;;;;;20781536;28;20404;-47
2022/03/20 20:43:43;;;;;;;10.88;6.13;;;1.30;89.70;;;;;;20719434;28;20043;-46
2022/03/20 20:53:46;;;;;;;12.30;7.15;;;1.40;88.00;;;;;;20719079;28;20403;-51
2022/03/20 21:03:50;;;;;;;12.13;6.93;;;1.30;90.40;;;;;;20718318;28;20107;-47
2022/03/20 21:13:54;;;;;;;14.30;7.07;;;1.10;90.60;;;;;;20675907;28;20430;-49
2022/03/20 21:23:56;;;;;;;13.57;6.82;;;1.10;90.70;;;;;;20569655;28;20105;-49
2022/03/20 21:33:59;;;;;;;13.32;7.80;;;1.10;91.10;;;;;;20855199;28;20063;-49
2022/03/20 21:44:01;;;;;;;15.00;7.20;;;1.10;91.70;;;;;;20904957;28;20041;-49
2022/03/20 21:54:04;;;;;;;12.65;6.40;;;1.00;90.00;;;;;;20903935;28;20044;-49
2022/03/20 22:04:07;;;;;;;12.77;6.35;;;0.80;90.10;;;;;;20971516;28;20028;-48
2022/03/20 22:14:13;;;;;;;11.27;6.35;;;0.80;87.10;;;;;;20984191;28;20385;-49
2022/03/20 22:24:16;;;;;;;10.90;5.93;;;1.00;90.00;;;;;;20984217;28;20089;-47
2022/03/20 22:34:19;;;;;;;14.45;7.05;;;0.90;86.40;;;;;;20751661;28;20050;-48
2022/03/20 22:44:21;;;;;;;13.65;6.53;;;1.10;85.30;;;;;;20729330;28;20042;-52
2022/03/20 22:54:24;;;;;;;15.13;6.38;;;1.40;84.60;;;;;;20711606;28;20069;-48
2022/03/20 23:04:28;;;;;;;11.55;6.40;;;1.20;87.20;;;;;;20711041;28;20395;-54
2022/03/20 23:14:30;;;;;;;10.30;5.95;;;1.10;88.30;;;;;;20710093;28;20038;-47
2022/03/20 23:24:33;;;;;;;11.95;6.50;;;0.90;87.90;;;;;;20713984;28;20050;-47
2022/03/20 23:34:35;;;;;;;12.77;6.70;;;0.70;90.00;;;;;;20724854;28;20126;-47
2022/03/20 23:44:37;;;;;;;11.82;6.90;;;-0.40;90.70;;;;;;20723696;28;20115;-48
2022/03/20 23:54:40;;;;;;;13.57;6.30;;;-1.30;92.90;;;;;;20722898;28;20463;-50
